createdAt,value
2018-04-20T04:02:23.468Z,8.80
2018-04-20T04:04:52.210Z,9.20
2018-04-20T04:07:21.717Z,9.30
2018-04-20T04:09:50.749Z,9.30
2018-04-20T04:12:19.491Z,9.80
2018-04-20T04:14:48.408Z,11.00
2018-04-20T04:17:29.090Z,12.00
2018-04-20T04:20:08.879Z,12.00
2018-04-20T04:22:48.742Z,12.10
2018-04-20T04:25:28.251Z,11.90
2018-04-20T04:28:08.623Z,11.30
2018-04-20T04:30:37.981Z,11.10
2018-04-20T04:33:08.028Z,11.10
2018-04-20T04:35:36.495Z,11.00
2018-04-20T04:38:04.994Z,10.80
2018-04-20T04:40:34.968Z,10.70
2018-04-20T04:43:03.415Z,10.70
2018-04-20T04:45:32.676Z,10.60
2018-04-20T04:48:01.204Z,10.60
2018-04-20T04:50:29.792Z,11.10
2018-04-20T04:52:58.251Z,11.50
2018-04-20T04:55:27.476Z,11.10
2018-04-20T04:57:56.009Z,11.10
2018-04-20T05:00:24.769Z,11.00
2018-04-20T05:02:53.271Z,11.00
2018-04-20T05:05:21.721Z,11.20
2018-04-20T05:07:50.191Z,11.20
2018-04-20T05:10:19.504Z,11.60
2018-04-20T05:12:47.954Z,11.50
2018-04-20T05:15:16.495Z,11.90
2018-04-20T05:17:45.065Z,12.10
2018-04-20T05:20:13.513Z,12.40
2018-04-20T05:22:42.027Z,12.60
2018-04-20T05:25:10.713Z,12.70
2018-04-20T05:27:39.203Z,12.70
2018-04-20T05:30:08.383Z,12.90
2018-04-20T05:32:36.886Z,13.20
2018-04-20T05:35:05.433Z,13.80
2018-04-20T05:37:34.127Z,14.70
2018-04-20T05:40:02.583Z,15.10
2018-04-20T05:42:31.647Z,16.50
2018-04-20T05:45:00.101Z,16.50
2018-04-20T05:47:28.440Z,16.90
2018-04-20T05:49:56.973Z,17.50
2018-04-20T05:52:26.287Z,19.10
2018-04-20T05:54:54.965Z,19.10
2018-04-20T05:57:23.511Z,19.00
2018-04-20T05:59:52.541Z,19.60
2018-04-20T06:02:21.171Z,19.60
2018-04-20T06:04:49.752Z,20.00
2018-04-20T06:07:20.124Z,20.00
2018-04-20T06:09:48.671Z,20.30
2018-04-20T06:12:18.079Z,20.80
2018-04-20T06:14:46.646Z,20.70
2018-04-20T06:17:14.940Z,21.60
2018-04-20T06:19:43.280Z,22.00
2018-04-20T06:22:12.696Z,22.50
2018-04-20T06:24:40.993Z,22.40
2018-04-20T06:27:09.520Z,22.00
2018-04-20T06:29:38.000Z,22.60
2018-04-20T06:32:06.548Z,23.60
2018-04-20T06:34:36.170Z,23.70
2018-04-20T06:37:05.839Z,24.30
2018-04-20T06:39:34.772Z,24.30
2018-04-20T06:42:05.437Z,24.70
2018-04-20T06:44:34.335Z,24.70
2018-04-20T06:47:02.869Z,25.20
2018-04-20T06:49:31.548Z,24.70
2018-04-20T06:52:00.820Z,24.10
2018-04-20T06:54:30.380Z,24.30
2018-04-20T06:56:59.768Z,24.80
2018-04-20T06:59:28.582Z,24.70
2018-04-20T07:01:57.141Z,25.10
2018-04-20T07:04:25.640Z,25.00
2018-04-20T07:06:55.088Z,25.00
2018-04-20T07:09:23.844Z,24.90
2018-04-20T07:11:52.779Z,25.70
2018-04-20T07:14:21.513Z,26.50
2018-04-20T07:16:51.961Z,27.90
2018-04-20T07:19:20.981Z,27.90
2018-04-20T07:21:49.845Z,28.30
2018-04-20T07:24:19.274Z,29.00
2018-04-20T07:26:47.799Z,29.50
2018-04-20T07:29:16.550Z,29.20
2018-04-20T07:31:46.132Z,29.30
2018-04-20T07:34:14.969Z,29.40
2018-04-20T07:36:43.808Z,29.00
2018-04-20T07:39:13.652Z,29.00
2018-04-20T07:41:42.137Z,29.00
2018-04-20T07:44:11.299Z,30.10
2018-04-20T07:46:40.126Z,30.20
2018-04-20T07:49:08.981Z,30.80
2018-04-20T07:51:38.806Z,31.60
2018-04-20T07:54:07.626Z,31.50
2018-04-20T07:56:36.541Z,31.60
2018-04-20T07:59:05.294Z,31.50
2018-04-20T08:01:34.123Z,30.40
2018-04-20T08:04:02.991Z,30.50
2018-04-20T08:06:31.940Z,31.20
2018-04-20T08:09:00.928Z,31.90
2018-04-20T08:11:31.140Z,33.10
2018-04-20T08:14:00.551Z,33.10
2018-04-20T08:16:30.140Z,33.30
2018-04-20T08:18:59.167Z,33.30
2018-04-20T08:21:29.273Z,34.00
2018-04-20T08:23:58.823Z,33.50
2018-04-20T08:26:27.673Z,33.50
2018-04-20T08:28:57.578Z,32.60
2018-04-20T08:31:27.062Z,32.60
2018-04-20T08:33:55.963Z,34.00
2018-04-20T08:36:24.801Z,34.60
2018-04-20T08:38:53.635Z,34.50
2018-04-20T08:41:22.482Z,35.40
2018-04-20T08:43:51.295Z,35.00
2018-04-20T08:46:20.404Z,34.60
2018-04-20T08:48:49.194Z,34.70
2018-04-20T08:51:17.943Z,34.10
2018-04-20T08:53:46.685Z,34.60
2018-04-20T08:56:15.521Z,35.30
2018-04-20T08:58:44.314Z,35.90
2018-04-20T09:01:13.228Z,35.40
2018-04-20T09:03:42.005Z,35.30
2018-04-20T09:06:10.813Z,34.80
2018-04-20T09:08:39.709Z,35.50
2018-04-20T09:11:08.482Z,35.90
2018-04-20T09:13:37.356Z,35.50
2018-04-20T09:16:06.259Z,36.10
2018-04-20T09:18:35.203Z,35.10
2018-04-20T09:21:03.982Z,35.50
2018-04-20T09:23:32.737Z,35.70
2018-04-20T09:26:01.488Z,36.20
2018-04-20T09:28:31.197Z,35.50
2018-04-20T09:31:01.036Z,35.40
2018-04-20T09:33:29.872Z,35.30
2018-04-20T09:35:58.703Z,36.00
2018-04-20T09:38:28.537Z,35.50
2018-04-20T09:40:57.372Z,35.40
2018-04-20T09:43:26.302Z,35.50
2018-04-20T09:45:56.035Z,35.50
2018-04-20T09:48:24.876Z,35.50
2018-04-20T09:50:54.255Z,35.00
2018-04-20T09:53:23.648Z,35.20
2018-04-20T09:55:52.625Z,35.30
2018-04-20T09:58:21.930Z,35.20
2018-04-20T10:00:51.269Z,35.10
2018-04-20T10:03:20.397Z,35.10
2018-04-20T10:05:50.520Z,36.70
2018-04-20T10:08:20.483Z,37.10
2018-04-20T10:10:49.555Z,37.00
2018-04-20T10:13:18.310Z,36.40
2018-04-20T10:15:47.498Z,36.70
2018-04-20T10:18:16.704Z,36.10
2018-04-20T10:20:46.206Z,36.00
2018-04-20T10:23:15.356Z,36.10
2018-04-20T10:25:44.176Z,36.10
2018-04-20T10:28:12.969Z,34.50
2018-04-20T10:30:41.805Z,34.90
2018-04-20T10:33:11.653Z,36.10
2018-04-20T10:35:41.016Z,36.10
2018-04-20T10:38:10.375Z,35.20
2018-04-20T10:40:39.119Z,35.40
2018-04-20T10:43:08.603Z,35.10
2018-04-20T10:45:37.745Z,35.00
2018-04-20T10:48:06.520Z,35.30
2018-04-20T10:50:35.343Z,35.20
2018-04-20T10:53:04.158Z,35.30
2018-04-20T10:55:32.995Z,35.90
2018-04-20T10:58:02.008Z,35.30
2018-04-20T11:00:30.796Z,35.50
2018-04-20T11:02:59.572Z,36.30
2018-04-20T11:05:28.287Z,36.50
2018-04-20T11:07:57.115Z,36.50
2018-04-20T11:10:26.879Z,36.70
2018-04-20T11:12:56.000Z,36.70
2018-04-20T11:15:24.519Z,36.70
2018-04-20T11:17:52.973Z,36.30
2018-04-20T11:20:21.485Z,36.10
2018-04-20T11:22:50.204Z,35.70
2018-04-20T11:25:18.719Z,35.70
2018-04-20T11:27:47.508Z,35.70
2018-04-20T11:30:16.041Z,35.60
2018-04-20T11:32:45.175Z,35.50
2018-04-20T11:35:16.051Z,35.10
2018-04-20T11:37:45.965Z,35.00
2018-04-20T11:40:15.652Z,35.20
2018-04-20T11:42:44.489Z,35.20
2018-04-20T11:45:13.284Z,34.70
2018-04-20T11:47:42.411Z,34.90
2018-04-20T11:50:11.866Z,34.90
2018-04-20T11:52:41.647Z,34.40
2018-04-20T11:55:10.641Z,34.40
2018-04-20T11:57:39.231Z,33.80
2018-04-20T12:00:08.020Z,34.00
2018-04-20T12:02:37.125Z,34.00
2018-04-20T12:05:06.558Z,34.00
2018-04-20T12:07:36.441Z,33.80
2018-04-20T12:10:05.336Z,33.80
2018-04-20T12:12:34.149Z,33.70
2018-04-20T12:15:03.250Z,33.70
2018-04-20T12:17:31.921Z,33.30
2018-04-20T12:20:01.851Z,33.30
2018-04-20T12:22:31.300Z,33.20
2018-04-20T12:25:00.261Z,33.00
2018-04-20T12:27:28.962Z,32.80
2018-04-20T12:29:57.896Z,32.60
2018-04-20T12:32:26.796Z,32.20
2018-04-20T12:34:56.142Z,32.20
2018-04-20T12:37:26.894Z,32.20
2018-04-20T12:39:56.956Z,31.90
2018-04-20T12:42:26.563Z,31.80
2018-04-20T12:44:55.601Z,32.00
2018-04-20T12:47:24.584Z,31.90
2018-04-20T12:49:54.398Z,31.70
2018-04-20T12:52:24.338Z,31.60
2018-04-20T12:54:53.146Z,32.00
2018-04-20T12:57:25.505Z,31.90
2018-04-20T12:59:55.489Z,30.50
2018-04-20T13:02:24.447Z,30.50
2018-04-20T13:04:53.430Z,30.60
2018-04-20T13:07:22.364Z,30.10
2018-04-20T13:09:52.008Z,30.40
2018-04-20T13:12:21.565Z,30.40
2018-04-20T13:14:50.533Z,30.30
2018-04-20T13:17:20.016Z,30.20
2018-04-20T13:19:49.003Z,30.10
2018-04-20T13:22:18.099Z,29.90
2018-04-20T13:31:20.917Z,28.30
2018-04-20T13:34:06.254Z,28.00
2018-04-20T13:36:38.280Z,27.70
2018-04-20T13:39:26.613Z,28.20
2018-04-20T13:47:40.556Z,28.20
2018-04-20T13:50:39.494Z,28.00
2018-04-20T13:53:09.561Z,28.00
2018-04-20T13:55:40.143Z,27.80
2018-04-20T13:58:10.269Z,28.00
2018-04-20T14:00:38.993Z,28.00
2018-04-20T14:03:08.193Z,28.20
2018-04-20T14:05:41.699Z,28.00
2018-04-20T14:08:10.379Z,27.90
2018-04-20T14:10:40.175Z,27.70
2018-04-20T14:13:08.973Z,27.40
2018-04-20T14:15:37.762Z,27.40
2018-04-20T14:18:07.287Z,27.40
2018-04-20T14:20:36.199Z,27.60
2018-04-20T14:23:06.925Z,27.80
2018-04-20T14:25:35.880Z,28.00
2018-04-20T14:28:04.741Z,27.50
2018-04-20T14:30:34.376Z,27.50
2018-04-20T14:33:03.299Z,27.50
2018-04-20T14:35:32.168Z,27.80
2018-04-20T14:38:01.897Z,28.00
2018-04-20T14:40:30.792Z,28.00
2018-04-20T14:42:59.609Z,27.90
2018-04-20T14:45:29.189Z,27.70
2018-04-20T14:47:58.157Z,27.70
2018-04-20T14:50:27.154Z,27.50
2018-04-20T14:52:55.921Z,27.30
2018-04-20T14:55:25.799Z,27.20
2018-04-20T14:57:54.545Z,27.20
2018-04-20T15:00:23.343Z,27.20
2018-04-20T15:02:52.253Z,27.00
2018-04-20T15:05:22.737Z,27.00
2018-04-20T15:07:52.547Z,26.80
2018-04-20T15:10:21.683Z,26.70
2018-04-20T15:12:51.229Z,26.60
2018-04-20T15:15:20.247Z,26.40
2018-04-20T15:17:49.927Z,26.30
2018-04-20T15:20:20.078Z,26.30
2018-04-20T15:22:52.376Z,26.20
2018-04-20T15:25:21.601Z,26.20
2018-04-20T15:27:51.204Z,26.20
2018-04-20T15:30:21.498Z,26.30
2018-04-20T15:32:50.879Z,26.30
2018-04-20T15:35:21.063Z,26.10
2018-04-20T15:37:51.089Z,25.90
2018-04-20T15:40:22.148Z,25.80
2018-04-20T15:42:53.162Z,25.70
2018-04-20T15:45:23.202Z,25.70
2018-04-20T15:47:52.682Z,25.70
2018-04-20T15:50:21.847Z,25.60
2018-04-20T15:52:51.552Z,25.50
2018-04-20T15:55:20.558Z,25.40
2018-04-20T15:57:49.957Z,25.40
2018-04-20T16:00:21.215Z,25.30
2018-04-20T16:02:51.282Z,25.20
2018-04-20T16:05:20.699Z,25.10
2018-04-20T16:07:50.561Z,25.10
2018-04-20T16:10:20.028Z,25.00
2018-04-20T16:12:49.157Z,24.80
2018-04-20T16:15:18.635Z,24.60
2018-04-20T16:17:47.561Z,24.60
2018-04-20T16:20:16.453Z,24.50
2018-04-20T16:22:45.815Z,24.40
2018-04-20T16:25:14.813Z,24.30
2018-04-20T16:27:43.743Z,24.20
2018-04-20T16:30:12.647Z,24.10
2018-04-20T16:32:41.453Z,23.90
2018-04-20T16:35:10.356Z,23.90
2018-04-20T16:37:39.041Z,23.60
2018-04-20T16:40:08.734Z,22.50
2018-04-20T16:42:37.645Z,22.50
2018-04-20T16:45:06.317Z,22.10
2018-04-20T16:47:35.274Z,21.80
2018-04-20T16:50:04.280Z,21.20
2018-04-20T16:52:33.053Z,21.10
2018-04-20T16:55:01.859Z,20.90
2018-04-20T16:57:30.795Z,20.60
2018-04-20T17:00:01.085Z,20.20
2018-04-20T17:02:30.313Z,20.20
2018-04-20T17:04:59.085Z,20.10
2018-04-20T17:07:27.898Z,19.90
2018-04-20T17:09:56.719Z,19.90
2018-04-20T17:12:26.730Z,19.60
2018-04-20T17:14:56.362Z,19.60
2018-04-20T17:17:28.374Z,19.20
2018-04-20T17:19:57.768Z,19.10
2018-04-20T17:22:27.626Z,18.90
2018-04-20T17:24:56.535Z,18.90
2018-04-20T17:27:26.241Z,18.70
2018-04-20T17:29:55.312Z,18.70
2018-04-20T17:32:24.805Z,18.50
2018-04-20T17:34:53.624Z,18.30
2018-04-20T17:37:23.434Z,18.10
2018-04-20T17:39:52.233Z,18.10
2018-04-20T17:42:21.380Z,17.80
2018-04-20T17:44:50.773Z,17.80
2018-04-20T17:47:19.680Z,17.70
2018-04-20T17:49:48.528Z,17.60
2018-04-20T17:52:17.612Z,17.40
2018-04-20T17:54:46.347Z,17.40
2018-04-20T17:57:14.868Z,17.30
2018-04-20T17:59:43.704Z,17.20
2018-04-20T18:02:12.369Z,17.10
2018-04-20T18:04:41.644Z,16.70
2018-04-20T18:07:11.263Z,16.70
2018-04-20T18:09:40.002Z,16.60
2018-04-20T18:12:08.859Z,16.40
2018-04-20T18:14:38.596Z,16.10
2018-04-20T18:17:07.735Z,16.10
2018-04-20T18:19:36.298Z,16.00
2018-04-20T18:22:05.055Z,15.90
2018-04-20T18:24:33.625Z,15.80
2018-04-20T18:27:02.336Z,15.70
2018-04-20T18:29:30.856Z,15.60
2018-04-20T18:31:59.537Z,15.50
2018-04-20T18:34:28.285Z,15.40
2018-04-20T18:36:56.777Z,15.30
2018-04-20T18:39:26.206Z,15.10
2018-04-20T18:41:54.745Z,15.10
2018-04-20T18:44:23.309Z,15.10
2018-04-20T18:46:51.784Z,15.00
2018-04-20T18:49:20.252Z,15.00
2018-04-20T18:51:48.841Z,14.90
2018-04-20T18:54:17.381Z,14.80
2018-04-20T18:56:45.890Z,14.70
2018-04-20T18:59:14.581Z,14.50
2018-04-20T19:01:43.287Z,14.50
2018-04-20T19:04:12.025Z,14.40
2018-04-20T19:06:40.496Z,14.40
2018-04-20T19:09:09.013Z,14.40
2018-04-20T19:11:37.531Z,14.30
2018-04-20T19:14:06.047Z,14.30
2018-04-20T19:16:34.631Z,14.20
2018-04-20T19:19:03.439Z,14.10
2018-04-20T19:21:32.817Z,14.10
2018-04-20T19:24:02.157Z,14.00
2018-04-20T19:26:30.703Z,14.00
2018-04-20T19:28:59.408Z,14.00
2018-04-20T19:31:27.947Z,14.00
2018-04-20T19:33:56.821Z,13.90
2018-04-20T19:36:25.729Z,13.80
2018-04-20T19:38:54.265Z,13.70
2018-04-20T19:41:22.808Z,13.60
2018-04-20T19:43:51.857Z,13.60
2018-04-20T19:46:20.372Z,13.60
2018-04-20T19:48:49.129Z,13.50
2018-04-20T19:51:18.599Z,13.30
2018-04-20T19:53:48.152Z,13.20
2018-04-20T19:56:16.960Z,13.20
2018-04-20T19:58:45.671Z,13.10
2018-04-20T20:01:14.391Z,13.00
2018-04-20T20:03:42.921Z,12.90
2018-04-20T20:06:11.478Z,12.80
2018-04-20T20:08:41.269Z,12.70
2018-04-20T20:11:09.961Z,12.70
2018-04-20T20:13:38.683Z,12.70
2018-04-20T20:16:08.139Z,12.80
2018-04-20T20:18:36.679Z,12.70
2018-04-20T20:21:05.214Z,12.80
2018-04-20T20:23:33.729Z,12.80
2018-04-20T20:26:02.530Z,12.80
2018-04-20T20:28:31.533Z,12.80
2018-04-20T20:31:00.077Z,12.70
2018-04-20T20:33:28.756Z,12.60
2018-04-20T20:35:57.257Z,12.60
2018-04-20T20:38:25.805Z,12.60
2018-04-20T20:40:55.607Z,12.60
2018-04-20T20:43:24.205Z,12.60
2018-04-20T20:45:53.412Z,12.60
2018-04-20T20:48:22.665Z,12.50
2018-04-20T20:50:51.871Z,12.50
2018-04-20T20:53:20.407Z,12.40
2018-04-20T20:55:48.921Z,12.30
2018-04-20T20:58:18.326Z,12.30
2018-04-20T21:00:46.820Z,12.20
2018-04-20T21:03:15.298Z,12.20
2018-04-20T21:05:43.809Z,12.10
2018-04-20T21:08:13.139Z,12.00
2018-04-20T21:10:41.854Z,11.90
2018-04-20T21:13:10.361Z,11.90
2018-04-20T21:15:38.915Z,11.70
2018-04-20T21:18:07.386Z,11.90
2018-04-20T21:20:35.852Z,12.00
2018-04-20T21:23:05.136Z,12.00
2018-04-20T21:25:34.386Z,12.00
2018-04-20T21:28:02.631Z,12.00
2018-04-20T21:30:31.320Z,11.90
2018-04-20T21:32:59.818Z,11.90
2018-04-20T21:35:28.323Z,11.80
2018-04-20T21:37:56.888Z,11.70
2018-04-20T21:40:25.358Z,11.70
2018-04-20T21:42:53.898Z,11.70
2018-04-20T21:45:22.664Z,11.60
2018-04-20T21:47:51.171Z,11.50
2018-04-20T21:50:19.713Z,11.40
2018-04-20T21:52:48.207Z,11.30
2018-04-20T21:55:16.743Z,11.20
2018-04-20T21:57:46.020Z,11.10
2018-04-20T22:00:14.535Z,11.10
